createdAt,value
2023-01-11T00:01:50.403Z,9.23
2023-01-11T01:33:55.786Z,13.64
2023-01-11T01:47:06.485Z,11.27
2023-01-11T02:08:25.703Z,9.24
2023-01-11T02:14:56.422Z,8.97
2023-01-11T02:22:10.131Z,8.75
2023-01-11T03:17:29.222Z,9.48
2023-01-11T03:23:39.877Z,9.15
2023-01-11T03:37:16.147Z,11.03
2023-01-11T03:56:18.486Z,10.90
2023-01-11T04:02:17.593Z,10.28
2023-01-11T04:14:14.085Z,9.34
2023-01-11T04:20:41.641Z,9.05
2023-01-11T04:26:36.636Z,8.80
2023-01-11T04:40:21.635Z,11.04
2023-01-11T04:54:36.775Z,11.67
2023-01-11T05:22:59.579Z,9.00
2023-01-11T05:35:36.047Z,10.53
2023-01-11T05:41:40.849Z,13.64
2023-01-11T05:47:30.273Z,12.63
2023-01-11T05:53:38.923Z,11.20
2023-01-11T06:06:13.088Z,9.93
2023-01-11T06:12:17.491Z,9.51
2023-01-11T07:25:32.187Z,12.43
2023-01-11T07:31:04.548Z,11.35
2023-01-11T07:36:54.386Z,10.59
2023-01-11T07:42:32.812Z,10.05
2023-01-11T07:47:55.987Z,9.58
2023-01-11T07:53:28.183Z,9.30
2023-01-11T07:59:35.911Z,10.67
2023-01-11T08:06:29.720Z,13.83
2023-01-11T08:12:57.406Z,13.35
2023-01-11T08:26:53.123Z,10.90
2023-01-11T08:33:43.997Z,10.30
2023-01-11T08:39:55.472Z,10.03
2023-01-11T08:46:08.453Z,9.78
2023-01-11T08:51:34.580Z,9.48
2023-01-11T08:57:24.572Z,10.62
2023-01-11T09:03:33.872Z,13.88
2023-01-11T09:09:42.805Z,13.41
2023-01-11T09:17:27.756Z,11.91
2023-01-11T09:24:04.109Z,10.89
2023-01-11T09:30:09.148Z,10.27
2023-01-11T09:35:53.012Z,9.85
2023-01-11T09:43:15.678Z,9.62
2023-01-11T09:55:37.475Z,10.36
2023-01-11T10:02:02.751Z,13.67
2023-01-11T10:18:25.789Z,11.32
2023-01-11T10:21:53.633Z,10.75
2023-01-11T10:28:40.057Z,10.42
2023-01-11T10:34:26.887Z,10.28
2023-01-11T11:16:33.654Z,9.62
2023-01-11T11:29:17.275Z,9.56
2023-01-11T11:42:38.927Z,9.61
2023-01-11T12:03:08.156Z,9.72
2023-01-11T12:08:52.487Z,9.78
2023-01-11T12:20:59.433Z,9.94
2023-01-11T12:33:26.034Z,10.01
2023-01-11T12:40:03.755Z,10.05
2023-01-11T12:46:03.737Z,10.09
2023-01-11T12:56:22.695Z,10.26
2023-01-11T13:02:33.955Z,10.35
2023-01-11T13:08:53.421Z,10.42
2023-01-11T13:15:03.994Z,10.35
2023-01-11T13:21:31.982Z,10.34
2023-01-11T13:27:41.424Z,10.32
2023-01-11T13:33:17.797Z,10.31
2023-01-11T13:39:26.409Z,10.27
2023-01-11T13:45:44.470Z,10.19
2023-01-11T13:56:20.570Z,14.10
2023-01-11T14:02:28.171Z,14.67
2023-01-11T14:08:45.476Z,14.22
2023-01-11T14:14:37.451Z,13.33
2023-01-11T14:21:06.675Z,12.57
2023-01-11T14:27:17.497Z,11.88
2023-01-11T14:33:46.981Z,11.36
2023-01-11T14:39:46.491Z,10.91
2023-01-11T14:45:50.605Z,10.57
2023-01-11T14:56:34.075Z,10.07
2023-01-11T15:02:34.056Z,9.86
2023-01-11T15:08:36.455Z,9.67
2023-01-11T15:14:44.718Z,9.52
2023-01-11T15:20:36.441Z,9.41
2023-01-11T15:26:01.467Z,9.29
2023-01-11T15:32:38.410Z,9.18
2023-01-11T15:38:42.914Z,9.06
2023-01-11T15:45:08.702Z,8.93
2023-01-11T15:51:38.247Z,8.77
2023-01-11T15:57:43.758Z,8.66
2023-01-11T16:04:20.446Z,8.56
2023-01-11T16:10:07.494Z,8.51
2023-01-11T16:15:54.890Z,8.45
2023-01-11T16:22:07.790Z,8.37
2023-01-11T16:27:56.665Z,8.30
2023-01-11T16:33:53.452Z,8.24
2023-01-11T16:39:53.518Z,8.20
2023-01-11T16:45:36.628Z,9.69
2023-01-11T16:51:40.971Z,12.95
2023-01-11T16:57:39.811Z,11.98
2023-01-11T17:03:38.772Z,10.84
2023-01-11T17:09:50.228Z,10.14
2023-01-11T17:16:05.217Z,9.57
2023-01-11T17:22:00.814Z,9.09
2023-01-11T17:28:14.470Z,8.67
2023-01-11T17:33:38.789Z,8.31
2023-01-11T17:39:24.752Z,8.05
2023-01-11T17:45:35.246Z,8.90
2023-01-11T17:51:23.968Z,12.37
2023-01-11T17:57:29.397Z,11.40
2023-01-11T19:06:03.549Z,9.31
2023-01-11T19:12:01.129Z,11.56
2023-01-11T19:18:24.295Z,10.27
2023-01-11T19:24:39.501Z,9.13
2023-01-11T19:31:07.132Z,8.39
2023-01-11T19:36:40.578Z,7.89
2023-01-11T19:43:12.355Z,7.52
2023-01-11T19:54:48.594Z,6.85
2023-01-11T20:01:03.942Z,6.68
2023-01-11T20:07:36.811Z,6.53
2023-01-11T20:13:49.444Z,7.97
2023-01-11T20:19:58.964Z,11.30
2023-01-11T20:25:46.851Z,10.99
2023-01-11T20:31:28.598Z,9.53
2023-01-11T20:37:33.737Z,8.71
2023-01-11T20:43:17.627Z,7.90
2023-01-11T20:49:20.747Z,7.38
2023-01-11T20:55:44.710Z,7.04
2023-01-11T21:02:17.027Z,6.71
2023-01-11T21:08:09.350Z,6.42
2023-01-11T21:14:04.609Z,6.22
2023-01-11T21:20:03.564Z,6.07
2023-01-11T21:25:39.088Z,7.34
2023-01-11T21:31:52.466Z,10.57
2023-01-11T21:37:59.334Z,11.16
2023-01-11T21:44:03.503Z,9.42
2023-01-11T21:50:14.782Z,8.49
2023-01-11T21:56:08.878Z,7.87
2023-01-11T22:01:44.041Z,7.41
2023-01-11T22:07:12.959Z,7.01
2023-01-11T22:13:16.292Z,6.80
2023-01-11T22:18:41.807Z,6.63
2023-01-11T22:24:22.804Z,7.91
2023-01-11T22:30:34.104Z,11.22
2023-01-11T23:46:14.255Z,7.19
2023-01-11T23:52:31.283Z,7.21
2023-01-11T23:58:48.045Z,7.23
